Etusivu
METAR-TAF:

METAR-TAF

Lentoasemat :

Moundou, Tšad

Leveyspiiri: 08-37N, Pituuspiiri: 016-04E, korkeus merenpinnasta: 428 m

Tämänhetkinen sää

Tämä raportti tehtiin 14 tuntia ja 9 minuuttia sitten, kello 14.00 UTC
Tuuli 10 kn pohjoisesta
Lämpötila 36°C
Kosteus 19%
Ilmanpaine 1011 hPa
Näkyvyys 10 km tai enemmän
ei pilviä alle 1500 m:ssä eikä cumulonimbus-pilviä

METAR: FTTD 241400Z 36010KT CAVOK 36/09 Q1011

Aika: 05:09 (04:09 UTC)


TAF: puuttuu

Säähavainnot ja -ennusteet yli 4000 lentoasemalta (METAR- ja TAF-raportit).

Käytössä olevat sääasemat on merkitty karttaan keltaisilla ja punaisilla pisteillä.

Aseta hiiri pisteen päälle nähdäksesi sääaseman nimen.

Klikkaa sitten nähdäksesi säähavainnot ja -ennusteet.

Kartan vaihtaminen: klikkaa mustalla rastilla varustettuja vihreitä pisteitä, niin voit zoomata sisään; viivalla varustettua vihreää pistettä, niin voit zoomata ulos tai vihreitä nuolia, niin pääset viereisille kartoille.


METAR-TAF: